createdAt,value
2018-11-14T00:00:28.130Z,84.10
2018-11-14T00:02:57.555Z,81.70
2018-11-14T00:05:26.693Z,82.40
2018-11-14T00:07:55.290Z,85.00
2018-11-14T00:10:24.868Z,85.80
2018-11-14T00:12:53.537Z,86.60
2018-11-14T00:15:23.840Z,86.80
2018-11-14T00:17:52.543Z,85.00
2018-11-14T00:20:20.996Z,83.80
2018-11-14T00:22:50.105Z,84.50
2018-11-14T00:25:19.214Z,85.00
2018-11-14T00:30:20.796Z,86.50
2018-11-14T00:32:49.243Z,86.10
2018-11-14T00:35:17.755Z,84.80
2018-11-14T00:37:47.036Z,84.70
2018-11-14T00:40:16.369Z,85.90
2018-11-14T00:42:45.958Z,87.10
2018-11-14T00:45:16.604Z,87.40
2018-11-14T00:47:46.994Z,88.90
2018-11-14T00:50:16.459Z,88.00
2018-11-14T00:52:45.664Z,86.10
2018-11-14T00:55:15.486Z,86.60
2018-11-14T00:57:45.180Z,86.00
2018-11-14T01:00:19.290Z,87.00
2018-11-14T01:02:47.967Z,88.40
2018-11-14T01:05:17.932Z,89.10
2018-11-14T01:07:47.792Z,89.00
2018-11-14T01:10:18.477Z,88.50
2018-11-14T01:12:47.881Z,85.60
2018-11-14T01:15:18.167Z,85.90
2018-11-14T01:17:47.384Z,84.90
2018-11-14T01:20:17.691Z,84.80
2018-11-14T01:22:46.628Z,85.50
2018-11-14T01:25:15.916Z,89.60
2018-11-14T01:27:45.093Z,89.90
2018-11-14T01:30:22.565Z,88.30
2018-11-14T01:32:52.543Z,88.80
2018-11-14T01:35:21.244Z,89.70
2018-11-14T01:37:50.075Z,90.40
2018-11-14T01:40:21.972Z,90.40
2018-11-14T01:42:52.634Z,90.20
2018-11-14T01:45:21.519Z,90.40
2018-11-14T01:47:50.941Z,90.70
2018-11-14T01:50:19.625Z,91.00
2018-11-14T01:57:49.531Z,90.30
2018-11-14T02:00:20.190Z,90.20
2018-11-14T02:02:49.736Z,90.20
2018-11-14T02:05:18.702Z,90.40
2018-11-14T02:07:51.959Z,90.30
2018-11-14T02:10:21.200Z,90.00
2018-11-14T02:12:50.565Z,90.10
2018-11-14T02:15:20.249Z,88.80
2018-11-14T02:17:49.085Z,88.10
2018-11-14T02:20:17.565Z,88.70
2018-11-14T02:22:46.506Z,88.60
2018-11-14T02:25:15.428Z,90.50
2018-11-14T02:27:44.494Z,89.50
2018-11-14T02:30:21.918Z,90.10
2018-11-14T02:32:51.898Z,89.00
2018-11-14T02:35:20.506Z,89.40
2018-11-14T02:37:49.187Z,88.60
2018-11-14T02:40:19.151Z,88.90
2018-11-14T02:42:48.102Z,88.50
2018-11-14T02:45:17.746Z,89.10
2018-11-14T02:47:46.767Z,89.60
2018-11-14T02:50:16.929Z,90.10
2018-11-14T02:52:45.479Z,90.30
2018-11-14T02:55:15.172Z,90.80
2018-11-14T02:57:44.120Z,91.10
2018-11-14T03:00:18.955Z,90.90
2018-11-14T03:02:48.622Z,91.10
2018-11-14T03:05:17.869Z,90.50
2018-11-14T03:07:46.344Z,89.40
2018-11-14T03:10:17.796Z,88.50
2018-11-14T03:12:46.933Z,89.50
2018-11-14T03:15:19.257Z,89.90
2018-11-14T03:17:48.233Z,89.20
2018-11-14T03:20:18.047Z,89.80
2018-11-14T03:22:47.743Z,88.40
2018-11-14T03:25:16.641Z,88.80
2018-11-14T03:27:45.121Z,90.10
2018-11-14T03:30:16.459Z,89.80
2018-11-14T03:32:45.371Z,88.40
2018-11-14T03:35:14.752Z,88.40
2018-11-14T03:37:43.292Z,88.50
2018-11-14T03:40:14.098Z,85.30
2018-11-14T03:42:42.888Z,84.50
2018-11-14T03:45:13.079Z,85.40
2018-11-14T03:47:42.050Z,86.20
2018-11-14T03:50:11.175Z,86.10
2018-11-14T03:52:40.331Z,86.70
2018-11-14T03:55:09.525Z,87.10
2018-11-14T03:57:38.291Z,85.80
2018-11-14T04:00:12.813Z,85.00
2018-11-14T04:02:42.234Z,85.10
2018-11-14T04:05:11.382Z,85.60
2018-11-14T04:07:41.800Z,85.40
2018-11-14T04:10:11.733Z,85.30
2018-11-14T04:12:40.733Z,86.10
2018-11-14T04:15:11.341Z,86.20
2018-11-14T04:17:43.364Z,87.50
2018-11-14T04:20:14.285Z,88.30
2018-11-14T04:22:42.920Z,89.00
2018-11-14T04:25:16.116Z,89.40
2018-11-14T04:27:45.696Z,89.20
2018-11-14T04:30:17.753Z,89.10
2018-11-14T04:32:46.271Z,88.90
2018-11-14T04:35:15.570Z,89.40
2018-11-14T04:37:44.112Z,89.10
2018-11-14T04:40:15.736Z,89.30
2018-11-14T04:42:44.275Z,89.40
2018-11-14T04:45:14.359Z,87.60
2018-11-14T04:47:43.146Z,87.50
2018-11-14T04:50:15.004Z,89.10
2018-11-14T04:52:44.450Z,90.60
2018-11-14T04:55:14.486Z,90.10
2018-11-14T04:57:43.879Z,88.90
2018-11-14T05:00:13.796Z,88.00
2018-11-14T05:02:43.298Z,90.30
2018-11-14T05:05:18.324Z,88.80
2018-11-14T05:07:48.844Z,88.30
2018-11-14T05:10:19.965Z,88.90
2018-11-14T05:12:49.209Z,89.80
2018-11-14T05:15:20.444Z,89.30
2018-11-14T05:17:49.818Z,88.90
2018-11-14T05:20:19.524Z,88.60
2018-11-14T05:22:48.546Z,87.40
2018-11-14T05:25:17.635Z,85.00
2018-11-14T05:27:46.420Z,85.10
2018-11-14T05:30:17.868Z,85.70
2018-11-14T05:32:48.158Z,85.10
2018-11-14T05:35:16.958Z,85.40
2018-11-14T05:37:46.408Z,83.40
2018-11-14T05:40:16.761Z,83.00
2018-11-14T05:42:46.374Z,83.90
2018-11-14T05:45:17.447Z,83.50
2018-11-14T05:47:46.248Z,82.70
2018-11-14T05:50:16.208Z,83.80
2018-11-14T05:55:13.692Z,85.10
2018-11-14T05:57:42.178Z,87.00
2018-11-14T06:00:14.935Z,86.60
2018-11-14T06:02:44.398Z,87.20
2018-11-14T06:05:13.081Z,89.10
2018-11-14T06:07:41.539Z,87.00
2018-11-14T06:10:12.138Z,87.10
2018-11-14T06:12:41.398Z,86.30
2018-11-14T06:15:13.688Z,87.60
2018-11-14T06:17:43.402Z,86.10
2018-11-14T06:20:18.481Z,85.30
2018-11-14T06:22:48.058Z,86.80
2018-11-14T06:25:26.604Z,84.90
2018-11-14T06:27:55.557Z,85.80
2018-11-14T06:30:24.277Z,87.10
2018-11-14T06:32:53.602Z,87.70
2018-11-14T06:35:23.044Z,86.80
2018-11-14T06:37:52.319Z,87.60
2018-11-14T06:40:21.519Z,88.10
2018-11-14T06:42:50.470Z,87.30
2018-11-14T06:45:20.959Z,84.60
2018-11-14T06:50:20.563Z,84.50
2018-11-14T06:52:50.168Z,85.20
2018-11-14T06:55:19.347Z,85.10
2018-11-14T06:57:49.141Z,88.50
2018-11-14T07:00:23.737Z,88.40
2018-11-14T07:02:53.513Z,87.90
2018-11-14T07:05:22.023Z,88.10
2018-11-14T07:07:50.831Z,88.50
2018-11-14T07:10:21.907Z,87.20
2018-11-14T07:12:52.400Z,88.40
2018-11-14T07:15:23.272Z,88.90
2018-11-14T07:17:52.579Z,90.00
2018-11-14T07:20:24.391Z,90.20
2018-11-14T07:22:53.042Z,87.80
2018-11-14T07:25:22.730Z,86.10
2018-11-14T07:27:51.797Z,87.00
2018-11-14T07:30:23.572Z,85.50
2018-11-14T07:35:33.920Z,85.40
2018-11-14T07:38:49.189Z,85.40
2018-11-14T07:41:26.039Z,86.10
2018-11-14T07:43:57.309Z,85.40
2018-11-14T07:46:27.188Z,85.50
2018-11-14T07:48:55.726Z,86.00
2018-11-14T07:51:24.886Z,83.20
2018-11-14T07:53:54.379Z,83.80
2018-11-14T07:56:24.076Z,82.60
2018-11-14T07:58:52.877Z,84.80
2018-11-14T08:01:22.388Z,81.60
2018-11-14T08:03:51.112Z,82.10
2018-11-14T08:06:20.068Z,81.70
2018-11-14T08:08:48.835Z,81.60
2018-11-14T08:11:19.397Z,81.90
2018-11-14T08:13:49.796Z,80.10
2018-11-14T08:16:19.794Z,79.60
2018-11-14T08:18:49.263Z,80.30
2018-11-14T08:21:18.422Z,79.60
2018-11-14T08:23:46.966Z,82.60
2018-11-14T08:26:15.583Z,77.90
2018-11-14T08:28:44.965Z,80.50
2018-11-14T08:31:13.573Z,79.60
2018-11-14T08:33:42.176Z,76.90
2018-11-14T08:36:11.062Z,76.40
2018-11-14T08:38:40.384Z,76.60
2018-11-14T08:41:08.918Z,76.60
2018-11-14T08:43:37.482Z,78.00
2018-11-14T08:46:06.885Z,78.00
2018-11-14T08:48:35.410Z,80.20
2018-11-14T08:51:05.581Z,78.30
2018-11-14T08:53:34.063Z,78.30
2018-11-14T08:56:02.921Z,78.40
2018-11-14T08:58:32.664Z,77.30
2018-11-14T09:01:01.377Z,77.70
2018-11-14T09:03:31.078Z,79.00
2018-11-14T09:05:59.674Z,76.10
2018-11-14T09:08:28.292Z,77.20
2018-11-14T09:10:56.815Z,75.10
2018-11-14T09:13:25.773Z,74.10
2018-11-14T09:15:54.260Z,74.30
2018-11-14T09:18:23.450Z,74.30
2018-11-14T09:20:52.956Z,74.00
2018-11-14T09:23:21.747Z,75.60
2018-11-14T09:25:50.263Z,72.30
2018-11-14T09:28:19.590Z,74.50
2018-11-14T09:30:48.064Z,74.10
2018-11-14T09:33:17.196Z,71.10
2018-11-14T09:35:46.001Z,69.60
2018-11-14T09:38:15.641Z,68.90
2018-11-14T09:40:45.826Z,69.00
2018-11-14T09:43:14.355Z,69.60
2018-11-14T09:45:42.803Z,69.90
2018-11-14T09:48:11.257Z,69.40
2018-11-14T09:50:39.697Z,70.10
2018-11-14T09:53:09.555Z,68.80
2018-11-14T09:55:38.509Z,68.10
2018-11-14T09:58:12.827Z,68.50
2018-11-14T10:00:42.188Z,66.80
2018-11-14T10:03:15.159Z,67.30
2018-11-14T10:05:45.743Z,68.60
2018-11-14T10:08:15.668Z,68.60
2018-11-14T10:10:46.639Z,69.30
2018-11-14T10:15:54.015Z,69.30
2018-11-14T10:18:24.966Z,68.50
2018-11-14T10:20:54.614Z,67.80
2018-11-14T10:23:24.235Z,66.80
2018-11-14T10:30:53.117Z,64.40
2018-11-14T10:33:22.767Z,65.00
2018-11-14T10:35:51.713Z,65.30
2018-11-14T10:38:20.671Z,66.50
2018-11-14T10:40:50.623Z,65.50
2018-11-14T10:43:19.433Z,66.00
2018-11-14T10:45:47.868Z,64.70
2018-11-14T10:48:17.377Z,65.10
2018-11-14T10:50:45.870Z,64.90
2018-11-14T10:53:14.614Z,64.70
2018-11-14T10:55:43.234Z,62.60
2018-11-14T10:58:12.115Z,61.30
2018-11-14T11:05:26.603Z,62.10
2018-11-14T11:08:01.183Z,62.40
2018-11-14T11:10:35.816Z,63.20
2018-11-14T11:13:08.913Z,61.10
2018-11-14T11:15:42.921Z,61.90
2018-11-14T11:18:13.369Z,62.20
2018-11-14T11:20:42.077Z,62.00
2018-11-14T11:23:10.571Z,62.00
2018-11-14T11:25:39.833Z,61.60
2018-11-14T11:28:09.292Z,61.70
2018-11-14T11:30:39.249Z,60.40
2018-11-14T11:33:08.988Z,59.90
2018-11-14T11:35:37.545Z,59.70
2018-11-14T11:38:07.020Z,58.30
2018-11-14T11:40:35.835Z,58.80
2018-11-14T11:43:05.473Z,57.20
2018-11-14T11:45:34.682Z,57.60
2018-11-14T11:48:04.217Z,57.40
2018-11-14T11:50:33.768Z,57.80
2018-11-14T11:53:02.242Z,58.60
2018-11-14T11:55:31.904Z,57.60
2018-11-14T11:58:02.911Z,56.60
2018-11-14T12:00:32.017Z,57.10
2018-11-14T12:03:01.038Z,55.40
2018-11-14T12:05:33.214Z,56.00
2018-11-14T12:08:03.185Z,56.40
2018-11-14T12:10:32.108Z,56.70
2018-11-14T12:13:01.267Z,55.50
2018-11-14T12:15:30.283Z,55.70
2018-11-14T12:17:59.838Z,55.40
2018-11-14T12:20:28.421Z,55.60
2018-11-14T12:22:57.469Z,54.90
2018-11-14T12:25:26.148Z,55.40
2018-11-14T12:27:55.027Z,54.60
2018-11-14T12:30:24.750Z,54.40
2018-11-14T12:32:53.300Z,54.00
2018-11-14T12:35:22.093Z,53.70
2018-11-14T12:37:51.227Z,53.10
2018-11-14T12:40:20.661Z,53.60
2018-11-14T12:42:50.304Z,52.70
2018-11-14T12:45:20.058Z,52.20
2018-11-14T12:47:48.748Z,52.40
2018-11-14T12:50:17.631Z,52.50
2018-11-14T12:52:46.485Z,52.90
2018-11-14T12:55:17.736Z,52.40
2018-11-14T12:57:46.734Z,52.50
2018-11-14T13:00:17.903Z,53.00
2018-11-14T13:02:47.445Z,51.60
2018-11-14T13:05:17.671Z,52.20
2018-11-14T13:07:46.542Z,50.60
2018-11-14T13:10:17.311Z,47.60
2018-11-14T13:12:47.547Z,48.40
2018-11-14T13:15:17.327Z,45.10
2018-11-14T13:17:47.395Z,38.60
2018-11-14T13:20:18.883Z,36.80
2018-11-14T13:22:53.002Z,33.80
2018-11-14T13:25:22.456Z,33.40
2018-11-14T13:27:51.739Z,32.20
2018-11-14T13:30:22.259Z,32.80
2018-11-14T13:32:51.197Z,31.30
2018-11-14T13:35:20.591Z,31.60
2018-11-14T13:37:51.142Z,30.80
2018-11-14T13:40:19.752Z,29.30
2018-11-14T13:42:49.037Z,30.60
2018-11-14T13:45:18.644Z,31.30
2018-11-14T13:47:48.008Z,29.40
2018-11-14T13:50:19.286Z,30.00
2018-11-14T13:52:48.028Z,29.70
2018-11-14T13:55:18.097Z,29.10
2018-11-14T13:57:48.166Z,30.90
2018-11-14T14:00:18.149Z,31.20
2018-11-14T14:02:48.046Z,31.10
2018-11-14T14:05:17.996Z,31.70
2018-11-14T14:07:46.483Z,31.70
2018-11-14T14:10:15.816Z,31.30
2018-11-14T14:12:46.361Z,30.60
2018-11-14T14:15:17.465Z,31.20
2018-11-14T14:17:46.950Z,32.20
2018-11-14T14:20:16.276Z,31.10
2018-11-14T14:22:45.719Z,32.70
2018-11-14T14:25:16.613Z,32.50
2018-11-14T14:27:45.866Z,32.90
2018-11-14T14:30:17.870Z,33.20
2018-11-14T14:32:46.766Z,32.10
2018-11-14T14:35:17.599Z,32.60
2018-11-14T14:37:46.390Z,33.40
2018-11-14T14:40:16.725Z,34.80
2018-11-14T14:42:45.407Z,32.60
2018-11-14T14:45:15.958Z,32.90
2018-11-14T14:47:44.644Z,29.80
2018-11-14T14:50:15.658Z,29.60
2018-11-14T14:52:44.626Z,32.60
2018-11-14T14:55:16.416Z,30.20
2018-11-14T14:57:45.757Z,30.90
2018-11-14T15:00:20.004Z,33.70
2018-11-14T15:02:49.060Z,34.30
2018-11-14T15:05:18.615Z,36.10
2018-11-14T15:07:47.191Z,38.60
2018-11-14T15:10:19.387Z,40.60
2018-11-14T15:12:48.076Z,43.90
2018-11-14T15:15:17.683Z,44.40
2018-11-14T15:17:46.550Z,46.90
2018-11-14T15:20:19.855Z,47.50
2018-11-14T15:22:48.372Z,49.80
2018-11-14T15:25:18.770Z,50.30
2018-11-14T15:27:47.996Z,51.00
2018-11-14T15:30:21.713Z,51.30
2018-11-14T15:32:50.991Z,52.30
2018-11-14T15:35:19.494Z,52.10
2018-11-14T15:37:48.333Z,54.40
2018-11-14T15:40:17.706Z,55.10
2018-11-14T15:42:46.379Z,56.50
2018-11-14T15:45:20.579Z,56.10
2018-11-14T15:47:48.935Z,56.00
2018-11-14T15:52:48.335Z,55.50
2018-11-14T15:55:17.868Z,57.90
2018-11-14T15:57:46.595Z,58.70
2018-11-14T16:00:20.434Z,59.00
2018-11-14T16:02:49.019Z,59.10
2018-11-14T16:05:18.938Z,57.80
2018-11-14T16:07:48.621Z,58.20
2018-11-14T16:10:18.559Z,59.50
2018-11-14T16:12:47.242Z,59.50
2018-11-14T16:15:17.660Z,59.90
2018-11-14T16:17:46.043Z,59.00
2018-11-14T16:20:16.582Z,60.90
2018-11-14T16:22:45.103Z,61.40
2018-11-14T16:25:15.204Z,61.60
2018-11-14T16:27:44.866Z,60.70
2018-11-14T16:30:31.188Z,61.30
2018-11-14T16:33:01.186Z,60.90
2018-11-14T16:35:29.643Z,62.70
2018-11-14T16:37:58.149Z,63.20
2018-11-14T16:40:29.775Z,64.50
2018-11-14T16:42:59.230Z,64.00
2018-11-14T16:45:27.896Z,66.00
2018-11-14T16:47:56.461Z,64.10
2018-11-14T16:50:25.159Z,64.10
2018-11-14T16:52:53.744Z,65.80
2018-11-14T16:55:22.539Z,64.90
2018-11-14T16:57:51.803Z,65.50
2018-11-14T17:00:28.419Z,67.40
2018-11-14T17:02:56.872Z,67.90
2018-11-14T17:05:27.384Z,67.00
2018-11-14T17:07:55.859Z,67.10
2018-11-14T17:10:24.840Z,67.60
2018-11-14T17:12:55.494Z,68.50
2018-11-14T17:15:25.668Z,69.20
2018-11-14T17:17:54.645Z,69.70
2018-11-14T17:20:23.554Z,70.10
2018-11-14T17:22:53.101Z,71.00
2018-11-14T17:25:21.891Z,71.90
2018-11-14T17:30:21.069Z,72.40
2018-11-14T17:32:51.777Z,72.90
2018-11-14T17:35:20.315Z,72.70
2018-11-14T17:37:48.938Z,72.00
2018-11-14T17:40:20.489Z,72.20
2018-11-14T17:42:50.335Z,72.40
2018-11-14T17:45:21.711Z,71.70
2018-11-14T17:47:51.877Z,72.30
2018-11-14T17:50:33.326Z,72.60
2018-11-14T17:53:03.506Z,73.20
2018-11-14T17:55:32.261Z,74.00
2018-11-14T17:58:03.125Z,74.60
2018-11-14T18:00:32.883Z,75.00
2018-11-14T18:03:02.660Z,75.60
2018-11-14T18:05:33.952Z,75.00
2018-11-14T18:08:05.329Z,75.60
2018-11-14T18:10:34.271Z,75.20
2018-11-14T18:13:04.615Z,75.10
2018-11-14T18:15:33.546Z,78.80
2018-11-14T18:18:02.510Z,78.20
2018-11-14T18:23:01.709Z,76.00
2018-11-14T18:25:30.389Z,75.50
2018-11-14T18:27:59.810Z,73.90
2018-11-14T18:30:30.076Z,73.10
2018-11-14T18:32:59.800Z,73.70
2018-11-14T18:35:29.274Z,74.70
2018-11-14T18:37:59.044Z,76.10
2018-11-14T18:40:32.614Z,76.20
2018-11-14T18:43:01.548Z,76.40
2018-11-14T18:45:33.297Z,75.10
2018-11-14T18:48:03.659Z,75.80
2018-11-14T18:50:32.317Z,75.00
2018-11-14T18:53:01.379Z,75.20
2018-11-14T18:55:31.968Z,75.80
2018-11-14T18:58:01.449Z,77.20
2018-11-14T19:03:01.256Z,77.40
2018-11-14T19:05:31.363Z,75.80
2018-11-14T19:08:00.769Z,79.30
2018-11-14T19:10:31.704Z,77.80
2018-11-14T19:13:00.411Z,77.90
2018-11-14T19:18:00.002Z,76.70
2018-11-14T19:20:31.002Z,75.30
2018-11-14T19:23:00.389Z,75.80
2018-11-14T19:28:00.068Z,77.80
2018-11-14T19:30:30.102Z,77.30
2018-11-14T19:32:59.628Z,77.80
2018-11-14T19:35:29.841Z,77.80
2018-11-14T19:40:32.961Z,78.70
2018-11-14T19:43:03.777Z,79.00
2018-11-14T19:45:36.946Z,78.50
2018-11-14T19:48:06.868Z,78.40
2018-11-14T19:50:35.723Z,78.80
2018-11-14T19:53:04.947Z,79.20
2018-11-14T19:55:34.925Z,79.70
2018-11-14T19:58:04.603Z,80.10
2018-11-14T20:00:35.791Z,78.90
2018-11-14T20:03:06.628Z,80.70
2018-11-14T20:05:36.455Z,79.10
2018-11-14T20:08:06.132Z,79.10
2018-11-14T20:10:35.373Z,79.60
2018-11-14T20:13:05.363Z,80.50
2018-11-14T20:15:35.543Z,82.10
2018-11-14T20:18:04.842Z,80.50
2018-11-14T20:20:35.260Z,81.10
2018-11-14T20:23:04.512Z,81.70
2018-11-14T20:25:33.365Z,81.40
2018-11-14T20:28:02.395Z,83.40
2018-11-14T20:30:32.588Z,81.00
2018-11-14T20:33:04.430Z,81.10
2018-11-14T20:35:34.097Z,80.80
2018-11-14T20:38:04.116Z,81.10
2018-11-14T20:40:33.028Z,81.90
2018-11-14T20:43:02.727Z,82.00
2018-11-14T20:45:32.823Z,82.40
2018-11-14T20:48:02.779Z,82.10
2018-11-14T20:50:32.251Z,82.60
2018-11-14T20:53:03.183Z,82.10
2018-11-14T20:58:01.531Z,82.70
2018-11-14T21:00:31.585Z,83.00
2018-11-14T21:03:00.498Z,81.30
2018-11-14T21:05:30.392Z,82.00
2018-11-14T21:08:00.379Z,81.50
2018-11-14T21:13:01.321Z,80.10
2018-11-14T21:18:01.029Z,81.60
2018-11-14T21:20:29.999Z,82.70
2018-11-14T21:23:00.292Z,82.70
2018-11-14T21:25:29.596Z,82.60
2018-11-14T21:27:58.301Z,83.30
2018-11-14T21:30:28.499Z,82.90
2018-11-14T21:32:57.100Z,82.30
2018-11-14T21:35:29.687Z,81.00
2018-11-14T21:38:00.389Z,82.00
2018-11-14T21:40:28.930Z,81.60
2018-11-14T21:42:57.956Z,82.20
2018-11-14T21:45:27.409Z,81.80
2018-11-14T21:48:01.485Z,81.40
2018-11-14T21:50:31.912Z,81.50
2018-11-14T21:53:00.389Z,82.30
2018-11-14T21:55:30.135Z,82.70
2018-11-14T21:57:59.353Z,80.60
2018-11-14T22:00:30.755Z,79.80
2018-11-14T22:02:59.839Z,80.60
2018-11-14T22:05:29.482Z,79.80
2018-11-14T22:07:57.949Z,80.30
2018-11-14T22:10:27.832Z,81.40
2018-11-14T22:12:57.203Z,82.30
2018-11-14T22:15:26.661Z,83.00
2018-11-14T22:17:55.822Z,81.60
2018-11-14T22:20:25.511Z,81.80
2018-11-14T22:22:54.568Z,81.10
2018-11-14T22:25:24.124Z,78.90
2018-11-14T22:27:52.924Z,78.60
2018-11-14T22:30:28.891Z,79.60
2018-11-14T22:32:58.428Z,79.90
2018-11-14T22:35:28.236Z,79.80
2018-11-14T22:37:56.659Z,79.40
2018-11-14T22:40:27.896Z,81.10
2018-11-14T22:42:56.336Z,81.20
2018-11-14T22:45:26.121Z,81.70
2018-11-14T22:47:55.246Z,82.50
2018-11-14T22:50:24.452Z,83.30
2018-11-14T22:52:53.164Z,83.40
2018-11-14T22:55:23.085Z,82.80
2018-11-14T22:57:52.035Z,82.40
2018-11-14T23:00:26.399Z,83.00
2018-11-14T23:02:56.172Z,82.70
2018-11-14T23:05:24.865Z,82.70
2018-11-14T23:07:54.367Z,83.40
2018-11-14T23:10:24.301Z,84.60
2018-11-14T23:12:54.075Z,85.20
2018-11-14T23:15:23.072Z,83.30
2018-11-14T23:17:51.985Z,83.80
2018-11-14T23:20:20.635Z,83.30
2018-11-14T23:22:49.645Z,83.80
2018-11-14T23:25:18.918Z,85.90
2018-11-14T23:27:50.736Z,82.20
2018-11-14T23:30:22.069Z,82.90
2018-11-14T23:32:51.883Z,83.90
2018-11-14T23:35:23.321Z,81.70
2018-11-14T23:37:53.758Z,82.70
2018-11-14T23:40:22.648Z,83.40
2018-11-14T23:42:51.212Z,81.70
2018-11-14T23:45:30.580Z,82.40
2018-11-14T23:47:59.300Z,81.50
2018-11-14T23:50:30.494Z,80.90
2018-11-14T23:53:00.363Z,81.10
2018-11-14T23:55:29.602Z,82.20
2018-11-14T23:57:58.927Z,81.80
